| time (UTC) | temp C | wind direction | speed KPH | gust KPH | rain 1hr cm | rain 24hr cm | rain mn cm | humidity % | barometer mb |
| 20260507142036 | 18 | 90 | 20.9 | 27.4 | 0.00 | 0.00 | 0.00 | 68 | 1011.0 |
| 20260507141516 | 19 | 90 | 17.7 | 29.0 | 0.00 | 0.00 | 0.00 | 70 | 1010.9 |
| 20260507141035 | 18 | 90 | 17.7 | 29.0 | 0.00 | 0.00 | 0.00 | 70 | 1010.9 |
| 20260507140515 | 18 | 90 | 17.7 | 24.1 | 0.00 | 0.00 | 0.00 | 69 | 1011.0 |
| 20260507140016 | 18 | 90 | 16.1 | 27.4 | 0.00 | 0.00 | 0.00 | 70 | 1011.0 |
| 20260507135516 | 18 | 90 | 20.9 | 29.0 | 0.00 | 0.00 | 0.00 | 71 | 1011.0 |
| 20260507135016 | 18 | 90 | 20.9 | 30.6 | 0.00 | 0.00 | 0.00 | 71 | 1011.1 |
| 20260507134516 | 18 | 90 | 19.3 | 27.4 | 0.00 | 0.00 | 0.00 | 70 | 1011.0 |
| 20260507134016 | 18 | 68 | 20.9 | 30.6 | 0.00 | 0.00 | 0.00 | 69 | 1011.1 |
| 20260507133516 | 18 | 90 | 20.9 | 30.6 | 0.00 | 0.00 | 0.00 | 68 | 1011.1 |
| 20260507133035 | 19 | 90 | 24.1 | 33.8 | 0.00 | 0.00 | 0.00 | 67 | 1011.2 |
| 20260507132515 | 19 | 90 | 22.5 | 32.2 | 0.00 | 0.00 | 0.00 | 65 | 1011.2 |
| 20260507132036 | 19 | 90 | 19.3 | 29.0 | 0.00 | 0.00 | 0.00 | 64 | 1011.3 |
| 20260507131515 | 19 | 68 | 22.5 | 30.6 | 0.00 | 0.00 | 0.00 | 64 | 1011.3 |
| 20260507131015 | 19 | 90 | 19.3 | 32.2 | 0.00 | 0.00 | 0.00 | 63 | 1011.4 |
| 20260507130515 | 20 | 68 | 25.7 | 33.8 | 0.00 | 0.00 | 0.00 | 64 | 1011.4 |
| 20260507130015 | 20 | 90 | 22.5 | 32.2 | 0.00 | 0.00 | 0.00 | 63 | 1011.5 |
| 20260507125515 | 20 | 68 | 29.0 | 38.6 | 0.00 | 0.00 | 0.00 | 64 | 1011.6 |
| 20260507125015 | 20 | 90 | 25.7 | 32.2 | 0.00 | 0.00 | 0.00 | 63 | 1011.6 |
| 20260507124515 | 20 | 68 | 25.7 | 37.0 | 0.00 | 0.00 | 0.00 | 63 | 1011.7 |
| 20260507124015 | 20 | 68 | 22.5 | 33.8 | 0.00 | 0.00 | 0.00 | 63 | 1011.6 |
| 20260507123535 | 20 | 68 | 22.5 | 33.8 | 0.00 | 0.00 | 0.00 | 62 | 1011.6 |
| 20260507123035 | 20 | 68 | 20.9 | 32.2 | 0.00 | 0.00 | 0.00 | 63 | 1011.7 |
| 20260507122535 | 20 | 68 | 22.5 | 32.2 | 0.00 | 0.00 | 0.00 | 63 | 1011.8 |
| 20260507122015 | 20 | 90 | 20.9 | 32.2 | 0.00 | 0.00 | 0.00 | 63 | 1011.9 |
| 20260507121515 | 20 | 90 | 27.4 | 35.4 | 0.00 | 0.00 | 0.00 | 65 | 1011.9 |
| 20260507121015 | 20 | 90 | 25.7 | 35.4 | 0.00 | 0.00 | 0.00 | 65 | 1011.9 |
| 20260507120515 | 20 | 90 | 22.5 | 37.0 | 0.00 | 0.00 | 0.00 | 64 | 1012.0 |
| 20260507120015 | 20 | 90 | 19.3 | 27.4 | 0.00 | 0.00 | 0.00 | 64 | 1011.9 |
| 20260507115515 | 20 | 68 | 22.5 | 33.8 | 0.00 | 0.00 | 0.00 | 63 | 1011.9 |
| 20260507115015 | 20 | 90 | 22.5 | 33.8 | 0.00 | 0.00 | 0.00 | 63 | 1011.9 |
| 20260507114515 | 20 | 68 | 24.1 | 33.8 | 0.00 | 0.00 | 0.00 | 61 | 1011.9 |
| 20260507114035 | 20 | 68 | 22.5 | 33.8 | 0.00 | 0.00 | 0.00 | 62 | 1012.0 |
| 20260507113517 | 20 | 68 | 17.7 | 29.0 | 0.00 | 0.00 | 0.00 | 63 | 1012.0 |
| 20260507113017 | 20 | 68 | 17.7 | 30.6 | 0.00 | 0.00 | 0.00 | 64 | 1012.1 |
| 20260507112517 | 20 | 68 | 19.3 | 33.8 | 0.00 | 0.00 | 0.00 | 66 | 1012.2 |
| 20260507112017 | 20 | 45 | 17.7 | 30.6 | 0.00 | 0.00 | 0.00 | 65 | 1012.4 |
| 20260507111515 | 20 | 90 | 19.3 | 32.2 | 0.00 | 0.00 | 0.00 | 65 | 1012.4 |
| 20260507111037 | 19 | 68 | 17.7 | 32.2 | 0.00 | 0.00 | 0.00 | 64 | 1012.5 |
| 20260507110517 | 20 | 45 | 19.3 | 33.8 | 0.00 | 0.00 | 0.00 | 64 | 1012.5 |
| 20260507110057 | 20 | 68 | 22.5 | 35.4 | 0.00 | 0.00 | 0.00 | 64 | 1012.5 |
| 20260507105517 | 19 | 68 | 20.9 | 32.2 | 0.00 | 0.00 | 0.00 | 65 | 1012.5 |
| 20260507105017 | 19 | 68 | 22.5 | 35.4 | 0.00 | 0.00 | 0.00 | 66 | 1012.6 |
| 20260507104517 | 19 | 68 | 16.1 | 30.6 | 0.00 | 0.00 | 0.00 | 66 | 1012.6 |
| 20260507104017 | 19 | 68 | 22.5 | 35.4 | 0.00 | 0.00 | 0.00 | 67 | 1012.5 |
| 20260507103517 | 19 | 68 | 25.7 | 37.0 | 0.00 | 0.00 | 0.00 | 67 | 1012.7 |
| 20260507103017 | 19 | 68 | 19.3 | 33.8 | 0.00 | 0.00 | 0.00 | 67 | 1012.7 |
| 20260507102517 | 19 | 68 | 19.3 | 30.6 | 0.00 | 0.00 | 0.00 | 68 | 1012.7 |
| 20260507102017 | 19 | 68 | 19.3 | 33.8 | 0.00 | 0.00 | 0.00 | 69 | 1012.7 |
| 20260507101517 | 19 | 68 | 19.3 | 33.8 | 0.00 | 0.00 | 0.00 | 68 | 1012.6 |
| 20260507101017 | 19 | 68 | 19.3 | 32.2 | 0.00 | 0.00 | 0.00 | 68 | 1012.6 |
| 20260507100517 | 19 | 68 | 16.1 | 37.0 | 0.00 | 0.00 | 0.00 | 69 | 1012.6 |
| 20260507100017 | 19 | 68 | 20.9 | 37.0 | 0.00 | 0.00 | 0.00 | 68 | 1012.7 |
| 20260507095517 | 18 | 68 | 20.9 | 33.8 | 0.00 | 0.00 | 0.00 | 69 | 1012.7 |
| 20260507095017 | 19 | 68 | 20.9 | 33.8 | 0.00 | 0.00 | 0.00 | 69 | 1012.7 |
| 20260507094517 | 18 | 68 | 19.3 | 33.8 | 0.00 | 0.00 | 0.00 | 70 | 1012.8 |
| 20260507094017 | 18 | 68 | 16.1 | 32.2 | 0.00 | 0.00 | 0.00 | 70 | 1012.8 |
| 20260507093537 | 19 | 68 | 16.1 | 27.4 | 0.00 | 0.00 | 0.00 | 70 | 1012.9 |
| 20260507093037 | 19 | 68 | 14.5 | 32.2 | 0.00 | 0.00 | 0.00 | 70 | 1012.9 |
| 20260507092517 | 18 | 45 | 17.7 | 30.6 | 0.00 | 0.00 | 0.00 | 70 | 1012.9 |
| 20260507092017 | 19 | 90 | 14.5 | 25.7 | 0.00 | 0.00 | 0.00 | 69 | 1012.9 |
| 20260507091517 | 19 | 68 | 16.1 | 25.7 | 0.00 | 0.00 | 0.00 | 69 | 1013.1 |
| 20260507091017 | 18 | 68 | 12.9 | 22.5 | 0.00 | 0.00 | 0.00 | 69 | 1012.9 |
| 20260507090517 | 18 | 68 | 17.7 | 29.0 | 0.00 | 0.00 | 0.00 | 69 | 1012.8 |
| 20260507090017 | 18 | 68 | 16.1 | 29.0 | 0.00 | 0.00 | 0.00 | 69 | 1012.9 |
| 20260507085537 | 18 | 68 | 12.9 | 33.8 | 0.00 | 0.00 | 0.00 | 70 | 1012.9 |
| 20260507085017 | 18 | 68 | 14.5 | 33.8 | 0.00 | 0.00 | 0.00 | 69 | 1012.9 |
| 20260507084517 | 18 | 68 | 16.1 | 27.4 | 0.00 | 0.00 | 0.00 | 69 | 1012.9 |
| 20260507084017 | 18 | 68 | 17.7 | 32.2 | 0.00 | 0.00 | 0.00 | 70 | 1012.9 |
| 20260507083537 | 18 | 68 | 19.3 | 32.2 | 0.00 | 0.00 | 0.00 | 69 | 1012.9 |
| 20260507083017 | 18 | 68 | 19.3 | 30.6 | 0.00 | 0.00 | 0.00 | 69 | 1012.8 |
| 20260507082517 | 18 | 68 | 16.1 | 29.0 | 0.00 | 0.00 | 0.00 | 70 | 1012.8 |
| 20260507082017 | 18 | 90 | 8.0 | 14.5 | 0.00 | 0.00 | 0.00 | 70 | 1012.8 |
| 20260507081517 | 18 | 68 | 14.5 | 27.4 | 0.00 | 0.00 | 0.00 | 69 | 1012.9 |
| 20260507081017 | 18 | 68 | 19.3 | 30.6 | 0.00 | 0.00 | 0.00 | 68 | 1012.9 |
| 20260507080517 | 18 | 68 | 16.1 | 29.0 | 0.00 | 0.00 | 0.00 | 68 | 1012.9 |
| 20260507080017 | 18 | 45 | 11.3 | 20.9 | 0.00 | 0.00 | 0.00 | 67 | 1012.8 |
| 20260507075517 | 18 | 45 | 9.7 | 17.7 | 0.00 | 0.00 | 0.00 | 67 | 1012.8 |
| 20260507075017 | 18 | 68 | 8.0 | 22.5 | 0.00 | 0.00 | 0.00 | 68 | 1012.7 |
| 20260507074517 | 18 | 68 | 12.9 | 29.0 | 0.00 | 0.00 | 0.00 | 68 | 1012.6 |
| 20260507074017 | 18 | 45 | 14.5 | 24.1 | 0.00 | 0.00 | 0.00 | 68 | 1012.4 |
| 20260507073517 | 18 | 68 | 8.0 | 16.1 | 0.00 | 0.00 | 0.00 | 68 | 1012.4 |
| 20260507073017 | 18 | 45 | 12.9 | 29.0 | 0.00 | 0.00 | 0.00 | 68 | 1012.4 |
| 20260507072517 | 18 | 23 | 14.5 | 24.1 | 0.00 | 0.00 | 0.00 | 67 | 1012.3 |
| 20260507072017 | 18 | 45 | 9.7 | 24.1 | 0.00 | 0.00 | 0.00 | 67 | 1012.3 |
| 20260507071537 | 18 | 45 | 3.2 | 20.9 | 0.00 | 0.00 | 0.00 | 68 | 1012.3 |
| 20260507071017 | 18 | 23 | 8.0 | 20.9 | 0.00 | 0.00 | 0.00 | 67 | 1012.3 |
| 20260507070537 | 18 | 23 | 11.3 | 22.5 | 0.00 | 0.00 | 0.00 | 68 | 1012.2 |
| 20260507070017 | 17 | 23 | 4.8 | 14.5 | 0.00 | 0.00 | 0.00 | 69 | 1012.2 |
| 20260507065517 | 17 | 23 | 4.8 | 14.5 | 0.00 | 0.00 | 0.00 | 70 | 1012.1 |
| 20260507065017 | 17 | 0 | 4.8 | 14.5 | 0.00 | 0.00 | 0.00 | 70 | 1012.1 |
| 20260507064516 | 17 | 23 | 1.6 | 6.4 | 0.00 | 0.00 | 0.00 | 72 | 1012.1 |
| 20260507064037 | 17 | 0 | 3.2 | 11.3 | 0.00 | 0.00 | 0.00 | 72 | 1012.2 |
| 20260507063516 | 17 | 23 | 3.2 | 8.0 | 0.00 | 0.00 | 0.00 | 73 | 1012.3 |
| 20260507063017 | 16 | 23 | 3.2 | 8.0 | 0.00 | 0.00 | 0.00 | 73 | 1012.2 |
| 20260507062517 | 16 | 23 | 4.8 | 12.9 | 0.00 | 0.00 | 0.00 | 74 | 1012.2 |
| 20260507062017 | 16 | 23 | 3.2 | 12.9 | 0.00 | 0.00 | 0.00 | 75 | 1012.2 |
| 20260507061536 | 16 | 0 | 4.8 | 8.0 | 0.00 | 0.00 | 0.00 | 75 | 1012.2 |
| 20260507061017 | 16 | 0 | 4.8 | 8.0 | 0.00 | 0.00 | 0.00 | 76 | 1012.1 |
| 20260507060516 | 15 | 338 | 4.8 | 9.7 | 0.00 | 0.00 | 0.00 | 77 | 1012.1 |
| 20260507060017 | 15 | 338 | 4.8 | 8.0 | 0.00 | 0.00 | 0.00 | 78 | 1012.1 |
| 20260507055517 | 15 | 315 | 3.2 | 6.4 | 0.00 | 0.00 | 0.00 | 78 | 1012.2 |
| 20260507055016 | 15 | 293 | 1.6 | 4.8 | 0.00 | 0.00 | 0.00 | 79 | 1012.2 |
| 20260507054516 | 15 | 293 | 3.2 | 4.8 | 0.00 | 0.00 | 0.00 | 79 | 1012.2 |
| 20260507054016 | 15 | 315 | 1.6 | 3.2 | 0.00 | 0.00 | 0.00 | 79 | 1012.3 |
| 20260507053517 | 15 | 315 | 1.6 | 4.8 | 0.00 | 0.00 | 0.00 | 79 | 1012.2 |
| 20260507053016 | 15 | 315 | 1.6 | 4.8 | 0.00 | 0.00 | 0.00 | 79 | 1012.2 |
| 20260507052537 | 15 | 315 | 1.6 | 4.8 | 0.00 | 0.00 | 0.00 | 79 | 1012.1 |
| 20260507052017 | 15 | 315 | 1.6 | 4.8 | 0.00 | 0.00 | 0.00 | 78 | 1012.1 |
| 20260507051517 | 15 | 315 | 3.2 | 6.4 | 0.00 | 0.00 | 0.00 | 78 | 1011.9 |
| 20260507051037 | 15 | 315 | 3.2 | 4.8 | 0.00 | 0.00 | 0.00 | 78 | 1011.9 |
| 20260507050536 | 15 | 338 | 3.2 | 6.4 | 0.00 | 0.00 | 0.00 | 78 | 1011.8 |
| 20260507050016 | 15 | 315 | 3.2 | 6.4 | 0.00 | 0.00 | 0.00 | 78 | 1011.8 |
| 20260507045516 | 15 | 338 | 3.2 | 6.4 | 0.00 | 0.00 | 0.00 | 78 | 1011.7 |
| 20260507045036 | 15 | 338 | 3.2 | 6.4 | 0.00 | 0.00 | 0.00 | 77 | 1011.8 |
| 20260507044516 | 15 | 338 | 4.8 | 9.7 | 0.00 | 0.00 | 0.00 | 77 | 1011.7 |
| 20260507044016 | 15 | 338 | 3.2 | 8.0 | 0.00 | 0.00 | 0.00 | 77 | 1011.6 |
| 20260507043516 | 15 | 338 | 3.2 | 8.0 | 0.00 | 0.00 | 0.00 | 78 | 1011.7 |
| 20260507043056 | 15 | 338 | 3.2 | 6.4 | 0.00 | 0.00 | 0.00 | 78 | 1011.8 |
| 20260507042516 | 15 | 338 | 1.6 | 4.8 | 0.00 | 0.00 | 0.00 | 77 | 1011.7 |
| 20260507042016 | 15 | 338 | 3.2 | 6.4 | 0.00 | 0.00 | 0.00 | 77 | 1011.7 |
| 20260507041516 | 15 | 338 | 3.2 | 6.4 | 0.00 | 0.00 | 0.00 | 77 | 1011.7 |
| 20260507041016 | 15 | 338 | 3.2 | 4.8 | 0.00 | 0.00 | 0.00 | 77 | 1011.7 |
| 20260507040518 | 15 | 338 | 3.2 | 6.4 | 0.00 | 0.00 | 0.00 | 77 | 1011.7 |
| 20260507040017 | 15 | 338 | 3.2 | 6.4 | 0.00 | 0.00 | 0.00 | 77 | 1011.6 |
| 20260507035516 | 15 | 338 | 3.2 | 6.4 | 0.00 | 0.00 | 0.00 | 77 | 1011.6 |
| 20260507035037 | 15 | 338 | 3.2 | 8.0 | 0.00 | 0.00 | 0.00 | 76 | 1011.5 |
| 20260507034516 | 15 | 0 | 4.8 | 8.0 | 0.00 | 0.00 | 0.00 | 76 | 1011.5 |
| 20260507034036 | 15 | 0 | 3.2 | 8.0 | 0.00 | 0.00 | 0.00 | 76 | 1011.5 |
| 20260507033516 | 15 | 23 | 3.2 | 8.0 | 0.00 | 0.00 | 0.00 | 76 | 1011.5 |
| 20260507033016 | 15 | 23 | 3.2 | 11.3 | 0.00 | 0.00 | 0.00 | 76 | 1011.6 |
| 20260507032516 | 15 | 23 | 3.2 | 9.7 | 0.00 | 0.00 | 0.00 | 76 | 1011.7 |
| 20260507032016 | 15 | 23 | 1.6 | 8.0 | 0.00 | 0.00 | 0.00 | 76 | 1011.6 |
| 20260507031516 | 15 | 23 | 3.2 | 8.0 | 0.00 | 0.00 | 0.00 | 76 | 1011.6 |
| 20260507031016 | 15 | 23 | 4.8 | 9.7 | 0.00 | 0.00 | 0.00 | 76 | 1011.7 |
| 20260507030516 | 15 | 0 | 4.8 | 11.3 | 0.00 | 0.00 | 0.00 | 77 | 1011.7 |
| 20260507030016 | 15 | 0 | 4.8 | 9.7 | 0.00 | 0.00 | 0.00 | 77 | 1011.8 |
| 20260507025516 | 15 | 0 | 3.2 | 6.4 | 0.00 | 0.00 | 0.00 | 77 | 1011.8 |
| 20260507025016 | 15 | 0 | 3.2 | 8.0 | 0.00 | 0.00 | 0.00 | 77 | 1011.8 |
| 20260507024516 | 15 | 0 | 3.2 | 6.4 | 0.00 | 0.00 | 0.00 | 77 | 1011.8 |
| 20260507024016 | 16 | 0 | 1.6 | 6.4 | 0.00 | 0.00 | 0.00 | 77 | 1011.8 |
| 20260507023516 | 16 | 0.0 | 1.6 | 0.00 | 0.00 | 0.00 | 77 | 1011.8 | |
| 20260507023016 | 16 | 0.0 | 1.6 | 0.00 | 0.00 | 0.00 | 77 | 1011.9 | |
| 20260507022516 | 16 | 0.0 | 1.6 | 0.00 | 0.00 | 0.00 | 77 | 1012.0 | |
| 20260507022016 | 16 | 315 | 1.6 | 3.2 | 0.00 | 0.00 | 0.00 | 77 | 1012.0 |
| 20260507021517 | 16 | 0.0 | 3.2 | 0.00 | 0.00 | 0.00 | 76 | 1012.0 | |
| 20260507021036 | 16 | 293 | 1.6 | 3.2 | 0.00 | 0.00 | 0.00 | 76 | 1012.2 |
| 20260507020516 | 16 | 315 | 1.6 | 3.2 | 0.00 | 0.00 | 0.00 | 76 | 1012.2 |
| 20260507020016 | 16 | 315 | 3.2 | 4.8 | 0.00 | 0.00 | 0.00 | 76 | 1012.1 |
| 20260507015516 | 16 | 293 | 3.2 | 4.8 | 0.00 | 0.00 | 0.00 | 76 | 1012.2 |
| 20260507015016 | 16 | 270 | 3.2 | 6.4 | 0.00 | 0.00 | 0.00 | 76 | 1012.3 |
| 20260507014516 | 16 | 315 | 1.6 | 4.8 | 0.00 | 0.00 | 0.00 | 76 | 1012.3 |
| 20260507014016 | 16 | 315 | 1.6 | 4.8 | 0.00 | 0.00 | 0.00 | 76 | 1012.2 |
| 20260507013516 | 16 | 338 | 3.2 | 6.4 | 0.00 | 0.00 | 0.00 | 76 | 1012.0 |
| 20260507013016 | 16 | 338 | 3.2 | 9.7 | 0.00 | 0.00 | 0.00 | 76 | 1012.0 |
| 20260507012516 | 16 | 338 | 3.2 | 6.4 | 0.00 | 0.00 | 0.00 | 76 | 1012.1 |
| 20260507012016 | 16 | 338 | 3.2 | 8.0 | 0.00 | 0.00 | 0.00 | 77 | 1012.2 |
| 20260507011516 | 16 | 338 | 3.2 | 6.4 | 0.00 | 0.00 | 0.00 | 77 | 1012.2 |
| 20260507011036 | 16 | 338 | 1.6 | 6.4 | 0.00 | 0.00 | 0.00 | 77 | 1012.2 |
| 20260507010536 | 16 | 338 | 3.2 | 8.0 | 0.00 | 0.00 | 0.00 | 77 | 1012.2 |
| 20260507010016 | 16 | 0 | 4.8 | 9.7 | 0.00 | 0.00 | 0.00 | 77 | 1012.2 |
| 20260507005516 | 16 | 0 | 4.8 | 8.0 | 0.00 | 0.00 | 0.00 | 77 | 1012.2 |
| 20260507005016 | 16 | 338 | 3.2 | 6.4 | 0.00 | 0.00 | 0.00 | 77 | 1012.2 |
| 20260507004516 | 16 | 338 | 3.2 | 9.7 | 0.00 | 0.00 | 0.00 | 77 | 1012.3 |
| 20260507004016 | 16 | 338 | 3.2 | 6.4 | 0.00 | 0.00 | 0.00 | 77 | 1012.4 |
| 20260507003516 | 16 | 315 | 1.6 | 4.8 | 0.00 | 0.00 | 0.00 | 78 | 1012.5 |
| 20260507003016 | 16 | 0 | 3.2 | 12.9 | 0.00 | 0.00 | 0.00 | 78 | 1012.4 |
| 20260507002516 | 16 | 0 | 8.0 | 12.9 | 0.00 | 0.00 | 0.00 | 78 | 1012.3 |
| 20260507002016 | 16 | 0 | 4.8 | 8.0 | 0.00 | 0.00 | 0.00 | 78 | 1012.4 |
| 20260507001516 | 16 | 0 | 4.8 | 11.3 | 0.00 | 0.00 | 0.00 | 78 | 1012.5 |
| 20260507001016 | 16 | 0 | 4.8 | 11.3 | 0.00 | 0.00 | 0.00 | 78 | 1012.5 |
| 20260507000516 | 16 | 0 | 4.8 | 12.9 | 0.00 | 0.00 | 0.00 | 78 | 1012.6 |
| 20260507000016 | 16 | 338 | 4.8 | 9.7 | 0.00 | 0.00 | 0.00 | 78 | 1012.7 |
| 20260506235516 | 16 | 338 | 4.8 | 11.3 | 0.00 | 0.00 | 0.00 | 78 | 1012.7 |
| 20260506235016 | 16 | 0 | 4.8 | 11.3 | 0.00 | 0.00 | 0.00 | 78 | 1012.8 |
| 20260506234516 | 16 | 0 | 4.8 | 11.3 | 0.00 | 0.00 | 0.00 | 78 | 1012.8 |
| 20260506234016 | 16 | 0 | 4.8 | 8.0 | 0.00 | 0.00 | 0.00 | 79 | 1012.8 |
| 20260506233536 | 16 | 0 | 4.8 | 11.3 | 0.00 | 0.00 | 0.00 | 79 | 1012.8 |
| 20260506233016 | 16 | 0 | 4.8 | 14.5 | 0.00 | 0.00 | 0.00 | 79 | 1012.8 |
| 20260506232516 | 16 | 0 | 4.8 | 14.5 | 0.00 | 0.00 | 0.00 | 79 | 1012.8 |
| 20260506232036 | 16 | 0 | 4.8 | 9.7 | 0.00 | 0.00 | 0.00 | 79 | 1012.8 |
| 20260506231516 | 16 | 0 | 4.8 | 12.9 | 0.00 | 0.00 | 0.00 | 79 | 1012.8 |
| 20260506231016 | 16 | 0 | 4.8 | 9.7 | 0.00 | 0.00 | 0.00 | 79 | 1012.8 |
| 20260506230616 | 16 | 0 | 4.8 | 8.0 | 0.00 | 0.00 | 0.00 | 79 | 1012.8 |
| 20260506230016 | 16 | 0 | 4.8 | 9.7 | 0.00 | 0.00 | 0.00 | 79 | 1012.9 |
| 20260506225516 | 16 | 0 | 6.4 | 12.9 | 0.00 | 0.00 | 0.00 | 79 | 1012.9 |
| 20260506225016 | 16 | 0 | 6.4 | 12.9 | 0.00 | 0.00 | 0.00 | 79 | 1012.9 |
| 20260506224516 | 16 | 0 | 6.4 | 12.9 | 0.00 | 0.00 | 0.00 | 79 | 1012.9 |
| 20260506224016 | 16 | 0 | 6.4 | 12.9 | 0.00 | 0.00 | 0.00 | 79 | 1012.8 |
| 20260506223516 | 16 | 23 | 6.4 | 12.9 | 0.00 | 0.00 | 0.00 | 79 | 1012.9 |
| 20260506223016 | 16 | 23 | 6.4 | 12.9 | 0.00 | 0.00 | 0.00 | 79 | 1012.8 |
| 20260506222516 | 16 | 0 | 4.8 | 9.7 | 0.00 | 0.00 | 0.00 | 80 | 1012.8 |
| 20260506222016 | 16 | 23 | 4.8 | 12.9 | 0.00 | 0.00 | 0.00 | 80 | 1012.8 |
| 20260506221516 | 16 | 68 | 3.2 | 8.0 | 0.00 | 0.00 | 0.00 | 80 | 1012.9 |
| 20260506221016 | 16 | 68 | 3.2 | 8.0 | 0.00 | 0.00 | 0.00 | 80 | 1013.0 |
| 20260506220515 | 16 | 45 | 3.2 | 9.7 | 0.00 | 0.00 | 0.00 | 80 | 1013.0 |
| 20260506220016 | 17 | 68 | 1.6 | 8.0 | 0.00 | 0.00 | 0.00 | 80 | 1013.0 |
| 20260506215517 | 17 | 23 | 1.6 | 6.4 | 0.00 | 0.00 | 0.00 | 79 | 1013.1 |
| 20260506215017 | 17 | 68 | 1.6 | 8.0 | 0.00 | 0.00 | 0.00 | 79 | 1013.0 |
| 20260506214517 | 17 | 45 | 1.6 | 4.8 | 0.00 | 0.00 | 0.00 | 79 | 1013.1 |
| 20260506214037 | 17 | 45 | 1.6 | 4.8 | 0.00 | 0.00 | 0.00 | 79 | 1013.2 |
| 20260506213516 | 17 | 45 | 1.6 | 4.8 | 0.00 | 0.00 | 0.00 | 79 | 1013.4 |
| 20260506213016 | 17 | 0.0 | 4.8 | 0.00 | 0.00 | 0.00 | 79 | 1013.4 | |
| 20260506212517 | 17 | 0.0 | 3.2 | 0.00 | 0.00 | 0.00 | 79 | 1013.4 | |
| 20260506212036 | 17 | 0.0 | 4.8 | 0.00 | 0.00 | 0.00 | 79 | 1013.5 | |
| 20260506211517 | 17 | 0.0 | 4.8 | 0.00 | 0.00 | 0.00 | 79 | 1013.4 | |
| 20260506211017 | 17 | 45 | 1.6 | 6.4 | 0.00 | 0.00 | 0.00 | 79 | 1013.3 |
| 20260506210516 | 17 | 45 | 3.2 | 8.0 | 0.00 | 0.00 | 0.00 | 79 | 1013.3 |
| 20260506210017 | 17 | 45 | 1.6 | 6.4 | 0.00 | 0.00 | 0.00 | 79 | 1013.2 |
| 20260506205536 | 17 | 45 | 3.2 | 6.4 | 0.00 | 0.00 | 0.00 | 79 | 1013.1 |
| 20260506205017 | 17 | 45 | 3.2 | 8.0 | 0.00 | 0.00 | 0.00 | 79 | 1013.1 |
| 20260506204516 | 17 | 68 | 3.2 | 8.0 | 0.00 | 0.00 | 0.00 | 79 | 1013.2 |
| 20260506204016 | 17 | 68 | 1.6 | 6.4 | 0.00 | 0.00 | 0.00 | 79 | 1013.2 |
| 20260506203516 | 17 | 68 | 1.6 | 4.8 | 0.00 | 0.00 | 0.00 | 79 | 1013.1 |
| 20260506203016 | 17 | 68 | 1.6 | 6.4 | 0.00 | 0.00 | 0.00 | 79 | 1013.0 |
| 20260506202517 | 17 | 68 | 1.6 | 4.8 | 0.00 | 0.00 | 0.00 | 79 | 1012.9 |
| 20260506202017 | 17 | 68 | 3.2 | 6.4 | 0.00 | 0.00 | 0.00 | 79 | 1012.9 |
| 20260506201516 | 17 | 68 | 3.2 | 6.4 | 0.00 | 0.00 | 0.00 | 78 | 1012.8 |
| 20260506201017 | 17 | 90 | 3.2 | 8.0 | 0.00 | 0.00 | 0.00 | 78 | 1012.8 |
| 20260506200537 | 17 | 90 | 1.6 | 6.4 | 0.00 | 0.00 | 0.00 | 78 | 1012.8 |
| 20260506200037 | 17 | 90 | 3.2 | 8.0 | 0.00 | 0.00 | 0.00 | 78 | 1012.6 |
| 20260506195517 | 17 | 90 | 1.6 | 4.8 | 0.00 | 0.00 | 0.00 | 78 | 1012.6 |
| 20260506195016 | 17 | 90 | 3.2 | 6.4 | 0.00 | 0.00 | 0.00 | 77 | 1012.4 |
| 20260506194517 | 17 | 90 | 4.8 | 8.0 | 0.00 | 0.00 | 0.00 | 77 | 1012.3 |
| 20260506194016 | 17 | 68 | 3.2 | 6.4 | 0.00 | 0.00 | 0.00 | 77 | 1012.4 |
| 20260506193516 | 17 | 45 | 4.8 | 11.3 | 0.00 | 0.00 | 0.00 | 77 | 1012.3 |
| 20260506193016 | 17 | 90 | 3.2 | 8.0 | 0.00 | 0.00 | 0.00 | 77 | 1012.2 |
| 20260506192537 | 17 | 68 | 4.8 | 11.3 | 0.00 | 0.00 | 0.00 | 77 | 1012.2 |
| 20260506192016 | 17 | 68 | 8.0 | 16.1 | 0.00 | 0.00 | 0.00 | 77 | 1012.1 |
| 20260506191516 | 17 | 90 | 11.3 | 17.7 | 0.00 | 0.00 | 0.00 | 77 | 1012.0 |
| 20260506191016 | 17 | 68 | 9.7 | 17.7 | 0.00 | 0.00 | 0.00 | 77 | 1012.0 |
| 20260506190516 | 17 | 68 | 11.3 | 20.9 | 0.00 | 0.00 | 0.00 | 77 | 1012.0 |
| 20260506190017 | 17 | 68 | 17.7 | 25.7 | 0.00 | 0.00 | 0.00 | 77 | 1012.0 |
| 20260506185536 | 17 | 68 | 11.3 | 22.5 | 0.00 | 0.00 | 0.00 | 77 | 1012.0 |
| 20260506185016 | 17 | 68 | 12.9 | 20.9 | 0.00 | 0.00 | 0.00 | 77 | 1011.9 |
| 20260506184536 | 17 | 68 | 14.5 | 20.9 | 0.00 | 0.00 | 0.00 | 77 | 1011.9 |
| 20260506184016 | 17 | 68 | 8.0 | 22.5 | 0.00 | 0.00 | 0.00 | 77 | 1011.8 |
| 20260506183516 | 17 | 68 | 11.3 | 24.1 | 0.00 | 0.00 | 0.00 | 76 | 1011.8 |
| 20260506183016 | 17 | 68 | 12.9 | 24.1 | 0.00 | 0.00 | 0.00 | 76 | 1011.7 |
| 20260506182516 | 17 | 90 | 14.5 | 25.7 | 0.00 | 0.00 | 0.00 | 76 | 1011.7 |
| 20260506182016 | 17 | 68 | 20.9 | 29.0 | 0.00 | 0.00 | 0.00 | 75 | 1011.6 |
| 20260506181516 | 17 | 90 | 16.1 | 25.7 | 0.00 | 0.00 | 0.00 | 74 | 1011.6 |
| 20260506181036 | 17 | 68 | 19.3 | 29.0 | 0.00 | 0.00 | 0.00 | 74 | 1011.5 |
| 20260506180516 | 17 | 68 | 19.3 | 29.0 | 0.00 | 0.00 | 0.00 | 74 | 1011.6 |
| 20260506180016 | 17 | 90 | 12.9 | 24.1 | 0.00 | 0.00 | 0.00 | 74 | 1011.6 |
| 20260506175516 | 17 | 68 | 14.5 | 22.5 | 0.00 | 0.00 | 0.00 | 76 | 1011.7 |
| 20260506175016 | 17 | 68 | 12.9 | 19.3 | 0.00 | 0.00 | 0.00 | 76 | 1011.6 |
| 20260506174516 | 17 | 68 | 17.7 | 25.7 | 0.00 | 0.00 | 0.00 | 76 | 1011.6 |
| 20260506174016 | 18 | 68 | 17.7 | 25.7 | 0.00 | 0.00 | 0.00 | 76 | 1011.6 |
| 20260506173517 | 18 | 68 | 16.1 | 25.7 | 0.00 | 0.00 | 0.00 | 75 | 1011.7 |
| 20260506173056 | 18 | 68 | 17.7 | 29.0 | 0.00 | 0.00 | 0.00 | 75 | 1011.7 |
| 20260506172516 | 18 | 68 | 20.9 | 30.6 | 0.00 | 0.00 | 0.00 | 75 | 1011.6 |
| 20260506172016 | 18 | 90 | 19.3 | 30.6 | 0.00 | 0.00 | 0.00 | 75 | 1011.5 |
| 20260506171516 | 18 | 68 | 19.3 | 30.6 | 0.00 | 0.00 | 0.00 | 76 | 1011.5 |
| 20260506171017 | 18 | 68 | 24.1 | 35.4 | 0.00 | 0.00 | 0.00 | 75 | 1011.5 |
| 20260506170516 | 18 | 68 | 22.5 | 35.4 | 0.00 | 0.00 | 0.00 | 75 | 1011.4 |
| 20260506170016 | 18 | 68 | 17.7 | 30.6 | 0.00 | 0.00 | 0.00 | 75 | 1011.4 |
| 20260506165516 | 18 | 68 | 17.7 | 27.4 | 0.00 | 0.00 | 0.00 | 74 | 1011.4 |
| 20260506165016 | 18 | 68 | 19.3 | 33.8 | 0.00 | 0.00 | 0.00 | 75 | 1011.5 |
| 20260506164516 | 18 | 90 | 24.1 | 37.0 | 0.00 | 0.00 | 0.00 | 75 | 1011.3 |
| 20260506164016 | 18 | 68 | 19.3 | 32.2 | 0.00 | 0.00 | 0.00 | 74 | 1011.4 |
| 20260506163516 | 18 | 90 | 20.9 | 33.8 | 0.00 | 0.00 | 0.00 | 74 | 1011.4 |
| 20260506163036 | 18 | 68 | 27.4 | 37.0 | 0.00 | 0.00 | 0.00 | 73 | 1011.4 |
| 20260506162536 | 18 | 68 | 24.1 | 32.2 | 0.00 | 0.00 | 0.00 | 73 | 1011.3 |
| 20260506162016 | 18 | 90 | 25.7 | 37.0 | 0.00 | 0.00 | 0.00 | 73 | 1011.4 |
| 20260506161516 | 18 | 68 | 24.1 | 33.8 | 0.00 | 0.00 | 0.00 | 73 | 1011.4 |
| 20260506161036 | 18 | 68 | 24.1 | 38.6 | 0.00 | 0.00 | 0.00 | 71 | 1011.4 |
| 20260506160516 | 18 | 90 | 29.0 | 38.6 | 0.00 | 0.00 | 0.00 | 71 | 1011.2 |
| 20260506160016 | 19 | 90 | 24.1 | 33.8 | 0.00 | 0.00 | 0.00 | 70 | 1011.2 |
| 20260506155516 | 18 | 68 | 20.9 | 32.2 | 0.00 | 0.00 | 0.00 | 71 | 1011.1 |
| 20260506155016 | 19 | 68 | 24.1 | 38.6 | 0.00 | 0.00 | 0.00 | 70 | 1011.1 |
| 20260506154516 | 19 | 68 | 24.1 | 35.4 | 0.00 | 0.00 | 0.00 | 69 | 1011.2 |
| 20260506154016 | 19 | 90 | 20.9 | 32.2 | 0.00 | 0.00 | 0.00 | 70 | 1011.2 |
| 20260506153516 | 19 | 90 | 25.7 | 37.0 | 0.00 | 0.00 | 0.00 | 69 | 1011.2 |
| 20260506153016 | 19 | 90 | 25.7 | 35.4 | 0.00 | 0.00 | 0.00 | 69 | 1011.2 |
| 20260506152517 | 19 | 90 | 24.1 | 40.2 | 0.00 | 0.00 | 0.00 | 69 | 1011.3 |
| 20260506152016 | 19 | 90 | 22.5 | 33.8 | 0.00 | 0.00 | 0.00 | 69 | 1011.3 |
| 20260506151516 | 20 | 68 | 20.9 | 38.6 | 0.00 | 0.00 | 0.00 | 67 | 1011.3 |
| 20260506151016 | 20 | 68 | 22.5 | 35.4 | 0.00 | 0.00 | 0.00 | 68 | 1011.3 |
| 20260506150516 | 19 | 90 | 24.1 | 33.8 | 0.00 | 0.00 | 0.00 | 69 | 1011.3 |
| 20260506150016 | 19 | 90 | 27.4 | 40.2 | 0.00 | 0.00 | 0.00 | 69 | 1011.3 |
| 20260506145516 | 19 | 90 | 29.0 | 45.1 | 0.00 | 0.00 | 0.00 | 69 | 1011.4 |
| 20260506145016 | 19 | 68 | 24.1 | 38.6 | 0.00 | 0.00 | 0.00 | 68 | 1011.5 |
| 20260506144516 | 19 | 68 | 24.1 | 41.8 | 0.00 | 0.00 | 0.00 | 69 | 1011.5 |
| 20260506144016 | 19 | 68 | 27.4 | 38.6 | 0.00 | 0.00 | 0.00 | 69 | 1011.5 |
| 20260506143516 | 19 | 68 | 24.1 | 40.2 | 0.00 | 0.00 | 0.00 | 68 | 1011.7 |
| 20260506143016 | 19 | 68 | 24.1 | 38.6 | 0.00 | 0.00 | 0.00 | 69 | 1011.7 |
| 20260506142516 | 19 | 68 | 22.5 | 33.8 | 0.00 | 0.00 | 0.00 | 69 | 1011.7 |